createdAt,value
2022-09-12T00:01:20.606Z,11.60
2022-09-12T00:03:49.071Z,11.60
2022-09-12T00:06:22.885Z,11.60
2022-09-12T00:08:53.096Z,11.60
2022-09-12T00:11:21.150Z,11.60
2022-09-12T00:13:49.190Z,11.70
2022-09-12T00:16:18.881Z,11.70
2022-09-12T00:18:47.728Z,11.70
2022-09-12T00:21:16.709Z,11.70
2022-09-12T00:23:45.228Z,11.70
2022-09-12T00:26:14.676Z,11.70
2022-09-12T00:28:43.233Z,11.70
2022-09-12T00:31:13.624Z,11.80
2022-09-12T00:33:43.839Z,11.60
2022-09-12T00:36:14.828Z,11.60
2022-09-12T00:38:43.237Z,11.60
2022-09-12T00:41:16.941Z,11.50
2022-09-12T00:43:47.791Z,11.50
2022-09-12T00:46:27.250Z,11.50
2022-09-12T00:48:59.437Z,11.50
2022-09-12T00:51:28.551Z,11.50
2022-09-12T00:53:59.424Z,11.60
2022-09-12T00:56:29.083Z,11.50
2022-09-12T00:59:00.736Z,11.40
2022-09-12T01:01:32.319Z,11.40
2022-09-12T01:04:01.695Z,11.40
2022-09-12T01:06:35.985Z,11.30
2022-09-12T01:09:05.187Z,11.30
2022-09-12T01:11:38.142Z,11.30
2022-09-12T01:14:06.420Z,11.30
2022-09-12T01:16:37.857Z,11.30
2022-09-12T01:19:23.874Z,11.20
2022-09-12T01:22:04.546Z,11.20
2022-09-12T01:24:49.994Z,11.20
2022-09-12T01:27:45.469Z,11.20
2022-09-12T01:30:45.162Z,11.20
2022-09-12T01:33:33.190Z,11.20
2022-09-12T01:36:19.347Z,11.20
2022-09-12T01:38:51.333Z,11.30
2022-09-12T01:41:27.572Z,11.20
2022-09-12T01:44:03.696Z,11.30
2022-09-12T01:46:37.071Z,11.20
2022-09-12T01:49:13.358Z,11.20
2022-09-12T01:51:45.075Z,11.20
2022-09-12T01:54:18.234Z,11.20
2022-09-12T01:56:50.048Z,11.20
2022-09-12T01:59:23.399Z,11.10
2022-09-12T02:01:57.436Z,11.10
2022-09-12T02:04:34.131Z,11.10
2022-09-12T02:07:07.988Z,11.10
2022-09-12T02:09:38.780Z,11.10
2022-09-12T02:12:11.443Z,11.10
2022-09-12T02:14:43.405Z,11.00
2022-09-12T02:17:15.876Z,11.10
2022-09-12T02:19:47.857Z,11.10
2022-09-12T02:22:19.276Z,11.00
2022-09-12T02:24:51.694Z,11.00
2022-09-12T02:27:23.516Z,11.10
2022-09-12T02:29:52.220Z,11.20
2022-09-12T02:32:29.611Z,11.10
2022-09-12T02:35:06.896Z,11.10
2022-09-12T02:37:51.227Z,11.10
2022-09-12T02:40:19.684Z,11.10
2022-09-12T02:42:47.784Z,11.10
2022-09-12T02:45:16.372Z,11.10
2022-09-12T02:47:49.981Z,11.10
2022-09-12T02:50:18.407Z,11.10
2022-09-12T02:52:47.444Z,11.10
2022-09-12T02:55:16.439Z,11.10
2022-09-12T02:57:44.697Z,11.00
2022-09-12T03:00:14.145Z,11.00
2022-09-12T03:03:08.982Z,11.00
2022-09-12T03:05:41.468Z,11.00
2022-09-12T03:08:37.838Z,11.00
2022-09-12T03:11:25.808Z,11.00
2022-09-12T03:14:06.733Z,11.00
2022-09-12T03:16:39.833Z,11.00
2022-09-12T03:19:20.077Z,11.00
2022-09-12T03:21:59.796Z,10.90
2022-09-12T03:24:33.538Z,10.90
2022-09-12T03:27:08.970Z,10.90
2022-09-12T03:29:38.420Z,10.90
2022-09-12T03:32:07.451Z,10.90
2022-09-12T03:34:36.885Z,10.80
2022-09-12T03:37:05.087Z,10.80
2022-09-12T03:39:33.338Z,10.80
2022-09-12T03:42:01.463Z,10.80
2022-09-12T03:44:29.666Z,10.80
2022-09-12T03:46:57.665Z,10.80
2022-09-12T03:49:25.667Z,10.80
2022-09-12T03:51:55.052Z,10.80
2022-09-12T03:54:23.210Z,10.80
2022-09-12T03:56:51.200Z,10.80
2022-09-12T03:59:19.217Z,10.70
2022-09-12T04:01:47.248Z,10.80
2022-09-12T04:04:15.322Z,10.80
2022-09-12T04:06:44.137Z,10.80
2022-09-12T04:09:13.515Z,10.80
2022-09-12T04:11:41.508Z,10.80
2022-09-12T04:14:09.512Z,10.70
2022-09-12T04:16:37.671Z,10.80
2022-09-12T04:19:05.837Z,10.70
2022-09-12T04:21:33.907Z,10.70
2022-09-12T04:24:02.272Z,10.70
2022-09-12T04:26:31.867Z,10.70
2022-09-12T04:29:00.186Z,10.70
2022-09-12T04:31:28.266Z,10.70
2022-09-12T04:33:57.125Z,10.70
2022-09-12T04:36:26.316Z,10.70
2022-09-12T04:38:54.770Z,10.70
2022-09-12T04:41:24.978Z,10.70
2022-09-12T04:43:58.209Z,10.60
2022-09-12T04:46:27.200Z,10.70
2022-09-12T04:48:57.044Z,10.70
2022-09-12T04:51:27.963Z,10.60
2022-09-12T04:53:58.172Z,10.70
2022-09-12T04:56:26.778Z,10.70
2022-09-12T04:58:58.651Z,10.70
2022-09-12T05:01:27.632Z,10.70
2022-09-12T05:03:56.588Z,10.70
2022-09-12T05:06:26.958Z,10.70
2022-09-12T05:08:55.982Z,10.70
2022-09-12T05:11:36.757Z,10.70
2022-09-12T05:14:15.847Z,10.70
2022-09-12T05:16:48.561Z,10.70
2022-09-12T05:19:17.548Z,10.70
2022-09-12T05:21:45.558Z,10.70
2022-09-12T05:24:13.726Z,10.70
2022-09-12T05:26:41.692Z,10.70
2022-09-12T05:29:09.748Z,10.80
2022-09-12T05:31:39.167Z,10.80
2022-09-12T05:34:09.094Z,10.80
2022-09-12T05:36:38.567Z,10.90
2022-09-12T05:39:06.527Z,11.00
2022-09-12T05:41:36.316Z,11.00
2022-09-12T05:44:06.534Z,11.00
2022-09-12T05:46:40.770Z,11.10
2022-09-12T05:49:11.296Z,11.10
2022-09-12T05:51:42.384Z,11.20
2022-09-12T05:54:13.192Z,11.20
2022-09-12T05:56:42.888Z,11.30
2022-09-12T05:59:14.059Z,11.40
2022-09-12T06:01:43.598Z,11.40
2022-09-12T06:04:12.235Z,11.50
2022-09-12T06:06:44.848Z,11.70
2022-09-12T06:09:14.348Z,11.60
2022-09-12T06:11:43.374Z,11.80
2022-09-12T06:14:13.414Z,11.90
2022-09-12T06:16:41.854Z,11.90
2022-09-12T06:19:17.027Z,12.10
2022-09-12T06:21:45.398Z,12.20
2022-09-12T06:24:13.451Z,12.30
2022-09-12T06:26:41.626Z,12.40
2022-09-12T06:29:11.441Z,12.50
2022-09-12T06:31:41.319Z,12.60
2022-09-12T06:34:12.490Z,12.80
2022-09-12T06:36:42.749Z,12.90
2022-09-12T06:39:13.209Z,13.10
2022-09-12T06:41:44.059Z,13.20
2022-09-12T06:44:14.359Z,13.30
2022-09-12T06:46:42.517Z,13.60
2022-09-12T06:49:12.094Z,13.70
2022-09-12T06:51:42.007Z,13.80
2022-09-12T06:54:12.906Z,14.10
2022-09-12T06:56:40.929Z,14.30
2022-09-12T06:59:09.060Z,14.60
2022-09-12T07:01:37.159Z,14.90
2022-09-12T07:04:06.430Z,15.10
2022-09-12T07:06:40.521Z,15.30
2022-09-12T07:09:11.980Z,15.60
2022-09-12T07:11:42.067Z,15.80
2022-09-12T07:14:12.948Z,16.00
2022-09-12T07:16:41.554Z,16.20
2022-09-12T07:19:10.536Z,16.40
2022-09-12T07:21:41.226Z,16.50
2022-09-12T07:24:11.116Z,16.60
2022-09-12T07:26:42.242Z,16.80
2022-09-12T07:29:35.909Z,17.00
2022-09-12T07:32:05.681Z,17.20
2022-09-12T07:34:33.972Z,17.50
2022-09-12T07:37:03.469Z,17.60
2022-09-12T07:39:32.455Z,17.70
2022-09-12T07:42:00.998Z,17.90
2022-09-12T07:44:29.447Z,18.10
2022-09-12T07:46:57.632Z,18.20
2022-09-12T07:49:25.918Z,18.40
2022-09-12T07:51:54.038Z,18.50
2022-09-12T07:54:23.799Z,18.70
2022-09-12T07:56:51.864Z,18.90
2022-09-12T07:59:35.677Z,19.10
2022-09-12T08:02:16.590Z,19.30
2022-09-12T08:04:45.476Z,19.70
2022-09-12T08:07:13.635Z,20.00
2022-09-12T08:09:43.100Z,20.30
2022-09-12T08:12:11.219Z,20.70
2022-09-12T08:14:41.225Z,21.10
2022-09-12T08:17:09.595Z,21.40
2022-09-12T08:19:38.817Z,21.70
2022-09-12T08:22:06.950Z,22.00
2022-09-12T08:24:35.062Z,22.20
2022-09-12T08:27:04.666Z,22.30
2022-09-12T08:29:32.788Z,22.30
2022-09-12T08:32:00.964Z,22.40
2022-09-12T08:34:29.036Z,22.30
2022-09-12T08:36:57.722Z,22.40
2022-09-12T08:39:26.014Z,22.40
2022-09-12T08:42:03.034Z,22.30
2022-09-12T08:44:55.765Z,22.10
2022-09-12T08:47:28.838Z,22.00
2022-09-12T08:50:11.761Z,22.00
2022-09-12T08:52:48.478Z,22.10
2022-09-12T08:55:26.872Z,22.50
2022-09-12T08:57:55.435Z,22.80
2022-09-12T09:00:26.525Z,23.10
2022-09-12T09:03:15.222Z,23.20
2022-09-12T09:05:51.389Z,23.30
2022-09-12T09:08:30.808Z,23.30
2022-09-12T09:11:05.641Z,23.30
2022-09-12T09:14:05.473Z,23.20
2022-09-12T09:16:37.493Z,23.10
2022-09-12T09:19:12.224Z,23.00
2022-09-12T09:21:46.230Z,23.00
2022-09-12T09:24:17.266Z,23.00
2022-09-12T09:26:51.780Z,23.00
2022-09-12T09:29:23.589Z,23.00
2022-09-12T09:31:55.940Z,23.10
2022-09-12T09:34:25.253Z,23.20
2022-09-12T09:37:01.588Z,23.40
2022-09-12T09:39:46.379Z,23.70
2022-09-12T09:42:28.917Z,24.10
2022-09-12T09:45:01.767Z,24.50
2022-09-12T09:47:31.209Z,25.00
2022-09-12T09:50:00.431Z,25.30
2022-09-12T09:52:32.709Z,25.50
2022-09-12T09:55:02.897Z,25.60
2022-09-12T09:57:42.657Z,25.50
2022-09-12T10:00:30.673Z,25.50
2022-09-12T10:03:27.038Z,25.50
2022-09-12T10:05:58.303Z,25.40
2022-09-12T10:08:28.799Z,25.40
2022-09-12T10:11:02.853Z,25.50
2022-09-12T10:13:40.605Z,25.50
2022-09-12T10:16:20.454Z,25.70
2022-09-12T10:18:51.099Z,25.70
2022-09-12T10:21:35.883Z,25.70
2022-09-12T10:24:21.368Z,25.50
2022-09-12T10:26:56.834Z,25.20
2022-09-12T10:29:29.549Z,25.00
2022-09-12T10:32:00.025Z,25.00
2022-09-12T10:34:33.542Z,25.00
2022-09-12T10:37:05.717Z,25.00
2022-09-12T10:39:36.213Z,25.00
2022-09-12T10:42:06.035Z,25.20
2022-09-12T10:44:35.793Z,25.60
2022-09-12T10:47:22.782Z,25.80
2022-09-12T10:49:52.263Z,26.00
2022-09-12T10:52:24.380Z,26.10
2022-09-12T10:54:52.818Z,25.80
2022-09-12T10:57:54.018Z,25.70
2022-09-12T11:00:27.832Z,25.70
2022-09-12T11:03:14.622Z,25.50
2022-09-12T11:05:54.428Z,25.30
2022-09-12T11:08:39.653Z,24.90
2022-09-12T11:11:33.370Z,24.80
2022-09-12T11:14:19.219Z,24.60
2022-09-12T11:16:56.177Z,24.60
2022-09-12T11:19:44.143Z,24.50
2022-09-12T11:22:31.735Z,24.30
2022-09-12T11:25:22.349Z,24.20
2022-09-12T11:28:22.502Z,24.10
2022-09-12T11:31:09.065Z,24.00
2022-09-12T11:33:43.386Z,24.00
2022-09-12T11:36:29.464Z,24.00
2022-09-12T11:39:15.717Z,23.80
2022-09-12T11:41:45.373Z,23.80
2022-09-12T11:44:17.384Z,23.80
2022-09-12T11:46:51.611Z,23.70
2022-09-12T11:49:28.833Z,23.60
2022-09-12T11:51:59.062Z,23.70
2022-09-12T11:54:30.678Z,23.70
2022-09-12T11:57:03.125Z,23.70
2022-09-12T11:59:36.250Z,23.90
2022-09-12T12:02:05.474Z,24.00
2022-09-12T12:04:41.095Z,24.00
2022-09-12T12:07:11.847Z,24.00
2022-09-12T12:09:47.482Z,24.10
2022-09-12T12:12:18.132Z,24.10
2022-09-12T12:14:47.224Z,24.10
2022-09-12T12:17:16.865Z,23.90
2022-09-12T12:19:46.003Z,23.90
2022-09-12T12:22:17.798Z,24.00
2022-09-12T12:25:04.141Z,23.90
2022-09-12T12:27:49.168Z,23.90
2022-09-12T12:30:35.627Z,24.00
2022-09-12T12:33:03.971Z,24.10
2022-09-12T12:35:39.628Z,24.30
2022-09-12T12:38:27.919Z,24.30
2022-09-12T12:41:17.157Z,24.30
2022-09-12T12:43:47.092Z,24.20
2022-09-12T12:46:15.847Z,24.10
2022-09-12T12:48:54.455Z,24.10
2022-09-12T12:51:39.861Z,24.20
2022-09-12T12:54:28.247Z,24.40
2022-09-12T12:57:03.633Z,24.40
2022-09-12T12:59:33.435Z,24.40
2022-09-12T13:02:01.950Z,24.40
2022-09-12T13:04:32.446Z,24.30
2022-09-12T13:07:07.898Z,24.10
2022-09-12T13:09:38.846Z,24.00
2022-09-12T13:12:08.080Z,23.80
2022-09-12T13:14:51.434Z,23.60
2022-09-12T13:17:37.307Z,23.40
2022-09-12T13:20:27.952Z,23.40
2022-09-12T13:22:56.803Z,23.50
2022-09-12T13:25:26.616Z,23.70
2022-09-12T13:28:01.531Z,23.90
2022-09-12T13:30:31.790Z,24.20
2022-09-12T13:33:06.412Z,24.30
2022-09-12T13:35:48.964Z,24.50
2022-09-12T13:38:21.591Z,24.60
2022-09-12T13:40:57.317Z,24.70
2022-09-12T13:43:30.427Z,24.70
2022-09-12T13:45:59.814Z,24.80
2022-09-12T13:48:27.767Z,24.80
2022-09-12T13:50:57.803Z,24.80
2022-09-12T13:53:27.007Z,24.60
2022-09-12T13:55:55.880Z,24.30
2022-09-12T13:58:26.713Z,24.00
2022-09-12T14:01:07.813Z,23.90
2022-09-12T14:03:58.938Z,24.00
2022-09-12T14:06:32.268Z,24.10
2022-09-12T14:09:02.600Z,24.40
2022-09-12T14:11:33.961Z,24.60
2022-09-12T14:14:05.227Z,24.90
2022-09-12T14:16:39.377Z,25.20
2022-09-12T14:19:07.394Z,25.40
2022-09-12T14:21:36.590Z,25.70
2022-09-12T14:24:08.573Z,25.80
2022-09-12T14:26:40.449Z,25.80
2022-09-12T14:29:10.131Z,25.90
2022-09-12T14:31:41.305Z,26.00
2022-09-12T14:34:17.421Z,25.90
2022-09-12T14:36:48.893Z,25.60
2022-09-12T14:39:23.048Z,25.30
2022-09-12T14:41:52.708Z,25.10
2022-09-12T14:44:25.322Z,24.90
2022-09-12T14:46:55.058Z,24.80
2022-09-12T14:49:28.886Z,24.80
2022-09-12T14:52:00.897Z,24.70
2022-09-12T14:54:40.261Z,24.60
2022-09-12T14:57:32.169Z,24.50
2022-09-12T15:00:20.780Z,24.40
2022-09-12T15:02:50.671Z,24.10
2022-09-12T15:05:20.267Z,24.00
2022-09-12T15:07:53.888Z,23.90
2022-09-12T15:10:24.123Z,24.00
2022-09-12T15:12:52.532Z,24.00
2022-09-12T15:15:21.992Z,24.00
2022-09-12T15:17:51.375Z,24.00
2022-09-12T15:20:19.357Z,23.90
2022-09-12T15:22:47.229Z,23.80
2022-09-12T15:25:15.068Z,23.70
2022-09-12T15:27:43.336Z,23.70
2022-09-12T15:30:13.164Z,23.50
2022-09-12T15:32:43.160Z,23.50
2022-09-12T15:35:14.979Z,23.40
2022-09-12T15:37:43.503Z,23.30
2022-09-12T15:40:13.224Z,23.30
2022-09-12T15:42:42.338Z,23.20
2022-09-12T15:45:19.536Z,23.10
2022-09-12T15:47:48.325Z,23.00
2022-09-12T15:50:18.037Z,22.80
2022-09-12T15:52:46.812Z,22.70
2022-09-12T15:55:19.421Z,22.60
2022-09-12T15:57:47.811Z,22.50
2022-09-12T16:00:17.744Z,22.50
2022-09-12T16:02:46.437Z,22.40
2022-09-12T16:05:18.122Z,22.40
2022-09-12T16:07:46.228Z,22.30
2022-09-12T16:10:18.766Z,22.30
2022-09-12T16:12:46.966Z,22.20
2022-09-12T16:15:17.442Z,22.20
2022-09-12T16:17:45.596Z,22.20
2022-09-12T16:20:14.412Z,22.20
2022-09-12T16:22:44.538Z,22.10
2022-09-12T16:25:12.581Z,22.20
2022-09-12T16:27:41.155Z,22.10
2022-09-12T16:30:10.530Z,22.10
2022-09-12T16:32:38.551Z,22.10
2022-09-12T16:35:07.687Z,22.10
2022-09-12T16:37:35.803Z,22.00
2022-09-12T16:40:07.094Z,22.00
2022-09-12T16:42:35.745Z,22.00
2022-09-12T16:45:04.295Z,21.90
2022-09-12T16:47:33.579Z,21.80
2022-09-12T16:50:01.570Z,21.70
2022-09-12T16:52:31.269Z,21.60
2022-09-12T16:54:59.296Z,21.50
2022-09-12T16:57:28.699Z,21.50
2022-09-12T16:59:56.678Z,21.50
2022-09-12T17:02:24.833Z,21.40
2022-09-12T17:04:53.581Z,21.30
2022-09-12T17:07:21.585Z,21.30
2022-09-12T17:09:51.051Z,21.20
2022-09-12T17:12:19.129Z,21.20
2022-09-12T17:14:48.437Z,21.10
2022-09-12T17:17:16.413Z,21.10
2022-09-12T17:19:44.469Z,21.00
2022-09-12T17:22:12.535Z,20.90
2022-09-12T17:24:40.569Z,20.90
2022-09-12T17:27:08.866Z,20.80
2022-09-12T17:29:37.163Z,20.70
2022-09-12T17:32:06.717Z,20.70
2022-09-12T17:34:34.849Z,20.60
2022-09-12T17:37:02.852Z,20.50
2022-09-12T17:39:31.052Z,20.50
2022-09-12T17:42:00.143Z,20.40
2022-09-12T17:44:30.147Z,20.40
2022-09-12T17:46:58.207Z,20.30
2022-09-12T17:49:28.285Z,20.20
2022-09-12T17:51:56.626Z,20.20
2022-09-12T17:54:24.765Z,20.20
2022-09-12T17:56:52.940Z,20.00
2022-09-12T17:59:24.511Z,20.00
2022-09-12T18:02:10.163Z,19.90
2022-09-12T18:04:40.701Z,19.80
2022-09-12T18:07:09.145Z,19.70
2022-09-12T18:09:39.120Z,19.70
2022-09-12T18:12:07.895Z,19.60
2022-09-12T18:14:37.669Z,19.60
2022-09-12T18:17:07.169Z,19.60
2022-09-12T18:19:38.681Z,19.60
2022-09-12T18:22:09.483Z,19.50
2022-09-12T18:24:37.706Z,19.40
2022-09-12T18:27:06.015Z,19.40
2022-09-12T18:29:35.010Z,19.40
2022-09-12T18:32:04.083Z,19.30
2022-09-12T18:34:32.602Z,19.30
2022-09-12T18:37:04.387Z,19.30
2022-09-12T18:39:34.381Z,19.30
2022-09-12T18:42:03.088Z,19.20
2022-09-12T18:44:31.703Z,19.20
2022-09-12T18:47:00.205Z,19.20
2022-09-12T18:49:28.897Z,19.20
2022-09-12T18:51:57.179Z,19.20
2022-09-12T18:54:25.387Z,19.20
2022-09-12T18:56:55.027Z,19.10
2022-09-12T18:59:24.161Z,19.10
2022-09-12T19:01:52.528Z,19.10
2022-09-12T19:04:21.085Z,19.10
2022-09-12T19:06:50.560Z,19.00
2022-09-12T19:09:20.685Z,19.00
2022-09-12T19:11:53.022Z,19.10
2022-09-12T19:14:24.928Z,19.10
2022-09-12T19:16:53.101Z,19.10
2022-09-12T19:19:21.405Z,19.10
2022-09-12T19:21:49.655Z,19.10
2022-09-12T19:24:17.878Z,19.10
2022-09-12T19:26:46.723Z,19.10
2022-09-12T19:29:16.736Z,19.00
2022-09-12T19:31:46.648Z,19.00
2022-09-12T19:34:15.426Z,19.00
2022-09-12T19:36:46.215Z,19.00
2022-09-12T19:39:15.051Z,19.00
2022-09-12T19:41:43.706Z,18.90
2022-09-12T19:44:12.159Z,18.90
2022-09-12T19:46:40.873Z,18.90
2022-09-12T19:49:11.444Z,18.90
2022-09-12T19:51:39.829Z,18.90
2022-09-12T19:54:08.261Z,18.90
2022-09-12T19:56:36.661Z,18.90
2022-09-12T19:59:05.132Z,18.90
2022-09-12T20:01:37.076Z,18.90
2022-09-12T20:04:07.143Z,18.90
2022-09-12T20:06:36.907Z,18.90
2022-09-12T20:09:06.561Z,18.90
2022-09-12T20:11:35.470Z,18.90
2022-09-12T20:14:04.302Z,18.90
2022-09-12T20:16:33.841Z,18.80
2022-09-12T20:19:04.234Z,18.80
2022-09-12T20:21:36.234Z,18.80
2022-09-12T20:24:08.202Z,18.70
2022-09-12T20:26:36.748Z,18.70
2022-09-12T20:29:05.920Z,18.70
2022-09-12T20:31:35.004Z,18.60
2022-09-12T20:34:03.266Z,18.50
2022-09-12T20:36:31.599Z,18.40
2022-09-12T20:39:01.331Z,18.30
2022-09-12T20:41:31.683Z,18.20
2022-09-12T20:43:59.730Z,18.00
2022-09-12T20:46:28.855Z,17.80
2022-09-12T20:48:56.899Z,17.70
2022-09-12T20:51:26.610Z,17.60
2022-09-12T20:53:55.113Z,17.50
2022-09-12T20:56:23.075Z,17.50
2022-09-12T20:58:52.409Z,17.40
2022-09-12T21:01:20.726Z,17.30
2022-09-12T21:03:48.808Z,17.30
2022-09-12T21:06:17.787Z,17.20
2022-09-12T21:08:45.959Z,17.10
2022-09-12T21:11:14.351Z,17.10
2022-09-12T21:13:42.505Z,16.90
2022-09-12T21:16:13.633Z,16.80
2022-09-12T21:18:42.443Z,16.70
2022-09-12T21:21:10.855Z,16.60
2022-09-12T21:23:39.103Z,16.60
2022-09-12T21:26:07.995Z,16.50
2022-09-12T21:28:36.589Z,16.40
2022-09-12T21:31:05.112Z,16.40
2022-09-12T21:33:34.707Z,16.40
2022-09-12T21:36:04.037Z,16.40
2022-09-12T21:38:32.527Z,16.40
2022-09-12T21:41:08.113Z,16.40
2022-09-12T21:43:36.869Z,16.50
2022-09-12T21:46:06.192Z,16.60
2022-09-12T21:48:35.777Z,16.70
2022-09-12T21:51:04.532Z,16.70
2022-09-12T21:53:33.114Z,16.70
2022-09-12T21:56:06.101Z,16.70
2022-09-12T21:58:34.170Z,16.70
2022-09-12T22:01:02.682Z,16.70
2022-09-12T22:03:31.100Z,16.80
2022-09-12T22:06:02.729Z,16.70
2022-09-12T22:08:32.806Z,16.70
2022-09-12T22:11:02.248Z,16.80
2022-09-12T22:13:32.493Z,16.80
2022-09-12T22:16:03.508Z,16.80
2022-09-12T22:18:33.599Z,16.90
2022-09-12T22:21:05.652Z,16.90
2022-09-12T22:23:51.269Z,16.90
2022-09-12T22:26:19.527Z,16.90
2022-09-12T22:28:48.284Z,16.90
2022-09-12T22:31:17.404Z,16.90
2022-09-12T22:33:45.690Z,16.90
2022-09-12T22:36:14.876Z,16.90
2022-09-12T22:38:42.751Z,16.90
2022-09-12T22:41:11.864Z,16.90
2022-09-12T22:43:39.804Z,16.90
2022-09-12T22:46:08.141Z,16.80
2022-09-12T22:48:36.448Z,16.70
2022-09-12T22:51:04.428Z,16.70
2022-09-12T22:53:34.293Z,16.60
2022-09-12T22:56:02.419Z,16.50
2022-09-12T22:58:30.658Z,16.40
2022-09-12T23:00:58.728Z,16.30
2022-09-12T23:03:26.849Z,16.30
2022-09-12T23:05:54.785Z,16.10
2022-09-12T23:08:22.677Z,16.00
2022-09-12T23:10:52.004Z,15.90
2022-09-12T23:13:20.002Z,15.80
2022-09-12T23:15:47.958Z,15.70
2022-09-12T23:18:16.130Z,15.60
2022-09-12T23:20:44.089Z,15.60
2022-09-12T23:23:12.152Z,15.50
2022-09-12T23:25:40.131Z,15.40
2022-09-12T23:28:09.522Z,15.40
2022-09-12T23:30:38.022Z,15.30
2022-09-12T23:33:05.917Z,15.30
2022-09-12T23:35:33.869Z,15.20
2022-09-12T23:38:01.747Z,15.10
2022-09-12T23:40:29.725Z,15.10
2022-09-12T23:42:57.684Z,15.00
2022-09-12T23:45:27.013Z,14.90
2022-09-12T23:47:54.958Z,14.90
2022-09-12T23:50:23.762Z,14.80
2022-09-12T23:52:51.651Z,14.80
2022-09-12T23:55:19.475Z,14.80
2022-09-12T23:57:47.440Z,14.70
